createdAt,value
2023-05-15T00:04:58.474Z,37.75
2023-05-15T00:10:01.498Z,37.78
2023-05-15T00:15:04.681Z,36.90
2023-05-15T00:20:10.073Z,37.03
2023-05-15T00:25:13.056Z,36.80
2023-05-15T00:30:16.316Z,36.78
2023-05-15T00:35:20.633Z,36.95
2023-05-15T00:40:26.141Z,36.72
2023-05-15T00:45:30.045Z,37.10
2023-05-15T00:50:34.580Z,36.70
2023-05-15T00:55:39.087Z,37.28
2023-05-15T01:00:43.676Z,37.40
2023-05-15T01:05:48.095Z,36.97
2023-05-15T01:10:53.194Z,37.35
2023-05-15T01:15:56.204Z,37.08
2023-05-15T01:21:27.865Z,36.88
2023-05-15T01:26:50.332Z,36.13
2023-05-15T01:31:59.722Z,36.28
2023-05-15T01:37:04.930Z,36.88
2023-05-15T01:42:10.788Z,37.08
2023-05-15T01:47:18.932Z,36.08
2023-05-15T01:52:27.903Z,36.30
2023-05-15T01:57:32.848Z,37.28
2023-05-15T02:02:38.197Z,36.75
2023-05-15T02:07:43.302Z,41.35
2023-05-15T02:12:46.428Z,37.22
2023-05-15T02:17:50.765Z,38.10
2023-05-15T02:22:53.677Z,36.85
2023-05-15T02:28:01.109Z,37.28
2023-05-15T02:33:15.900Z,36.50
2023-05-15T02:38:29.137Z,36.42
2023-05-15T02:43:32.650Z,36.08
2023-05-15T02:48:38.760Z,35.92
2023-05-15T02:53:42.210Z,35.80
2023-05-15T02:58:45.274Z,36.00
2023-05-15T03:03:49.759Z,36.15
2023-05-15T03:08:52.616Z,36.63
2023-05-15T03:13:55.599Z,36.53
2023-05-15T03:18:59.916Z,36.30
2023-05-15T03:24:02.930Z,36.10
2023-05-15T03:29:05.789Z,36.80
2023-05-15T03:34:10.017Z,36.53
2023-05-15T03:39:12.997Z,36.35
2023-05-15T03:44:15.829Z,37.05
2023-05-15T03:49:26.200Z,36.17
2023-05-15T03:54:29.107Z,36.10
2023-05-15T03:59:32.104Z,36.95
2023-05-15T04:04:36.293Z,36.40
2023-05-15T04:09:39.559Z,36.13
2023-05-15T04:14:42.405Z,35.97
2023-05-15T04:19:47.876Z,36.90
2023-05-15T04:24:50.810Z,36.28
2023-05-15T04:29:53.670Z,35.72
2023-05-15T04:34:58.017Z,36.65
2023-05-15T04:40:00.987Z,36.13
2023-05-15T04:45:05.314Z,36.35
2023-05-15T04:50:10.297Z,36.83
2023-05-15T04:55:13.294Z,37.28
2023-05-15T05:00:17.179Z,38.30
2023-05-15T05:05:21.614Z,36.40
2023-05-15T05:10:24.448Z,36.83
2023-05-15T05:15:27.658Z,36.42
2023-05-15T05:20:31.979Z,36.40
2023-05-15T05:25:34.860Z,35.95
2023-05-15T05:30:37.697Z,35.88
2023-05-15T05:35:41.959Z,36.03
2023-05-15T05:40:44.845Z,35.25
2023-05-15T05:45:48.144Z,35.60
2023-05-15T05:50:52.324Z,36.13
2023-05-15T05:55:55.474Z,36.33
2023-05-15T06:00:58.574Z,36.15
2023-05-15T06:06:02.909Z,36.13
2023-05-15T06:11:06.288Z,36.25
2023-05-15T06:16:09.194Z,36.20
2023-05-15T06:21:13.379Z,36.50
2023-05-15T06:26:16.296Z,36.55
2023-05-15T06:31:19.211Z,37.00
2023-05-15T06:36:24.009Z,36.40
2023-05-15T06:41:26.932Z,36.97
2023-05-15T06:46:29.814Z,36.90
2023-05-15T06:51:34.153Z,36.78
2023-05-15T06:56:37.021Z,36.15
2023-05-15T07:01:39.987Z,36.40
2023-05-15T07:06:44.478Z,36.55
2023-05-15T07:11:47.355Z,37.00
2023-05-15T07:16:50.434Z,36.78
2023-05-15T07:21:54.654Z,36.85
2023-05-15T07:26:59.181Z,37.08
2023-05-15T07:32:02.454Z,37.00
2023-05-15T07:37:06.767Z,37.33
2023-05-15T07:42:09.689Z,36.95
2023-05-15T07:47:12.561Z,37.35
2023-05-15T07:52:16.778Z,37.97
2023-05-15T07:57:20.857Z,37.88
2023-05-15T08:02:23.993Z,37.88
2023-05-15T08:07:28.302Z,38.38
2023-05-15T08:12:31.130Z,37.88
2023-05-15T08:17:34.072Z,38.33
2023-05-15T08:22:38.303Z,38.08
2023-05-15T08:27:41.167Z,38.67
2023-05-15T08:32:44.514Z,37.85
2023-05-15T08:37:48.731Z,39.72
2023-05-15T08:42:56.489Z,38.42
2023-05-15T08:48:01.541Z,39.30
2023-05-15T08:53:06.303Z,38.58
2023-05-15T08:58:10.151Z,37.60
2023-05-15T09:03:19.985Z,38.08
2023-05-15T09:08:25.859Z,38.40
2023-05-15T09:13:28.836Z,38.80
2023-05-15T09:18:33.460Z,39.13
2023-05-15T09:23:37.685Z,38.95
2023-05-15T09:28:40.938Z,38.67
2023-05-15T09:33:44.397Z,39.72
2023-05-15T09:38:49.732Z,39.33
2023-05-15T09:43:52.671Z,39.22
2023-05-15T09:48:56.080Z,39.35
2023-05-15T09:54:00.332Z,39.33
2023-05-15T09:59:03.194Z,39.50
2023-05-15T10:04:07.753Z,39.35
2023-05-15T10:09:12.874Z,38.97
2023-05-15T10:14:17.523Z,39.63
2023-05-15T10:19:23.661Z,39.33
2023-05-15T10:24:31.040Z,39.40
2023-05-15T10:29:34.804Z,39.15
2023-05-15T10:34:37.963Z,39.22
2023-05-15T10:39:44.594Z,39.67
2023-05-15T10:44:48.620Z,39.50
2023-05-15T10:49:51.484Z,40.10
2023-05-15T10:54:56.819Z,40.22
2023-05-15T11:00:01.330Z,40.20
2023-05-15T11:05:05.154Z,39.85
2023-05-15T11:10:38.359Z,39.85
2023-05-15T11:15:45.486Z,39.88
2023-05-15T11:21:08.141Z,40.50
2023-05-15T11:26:14.737Z,40.65
2023-05-15T11:31:17.698Z,41.13
2023-05-15T11:36:25.885Z,41.30
2023-05-15T11:41:33.468Z,41.08
2023-05-15T11:46:36.530Z,38.53
2023-05-15T11:51:43.098Z,37.75
2023-05-15T11:56:47.384Z,37.95
2023-05-15T12:01:50.346Z,38.40
2023-05-15T12:06:53.291Z,37.75
2023-05-15T12:11:57.504Z,37.42
2023-05-15T12:17:02.766Z,37.05
2023-05-15T12:22:06.901Z,36.83
2023-05-15T12:27:11.576Z,36.92
2023-05-15T12:32:14.701Z,36.72
2023-05-15T12:37:21.384Z,36.75
2023-05-15T12:42:26.084Z,37.28
2023-05-15T12:47:29.219Z,37.33
2023-05-15T12:52:32.664Z,38.58
2023-05-15T12:57:37.066Z,37.40
2023-05-15T13:02:40.074Z,37.67
2023-05-15T13:07:43.864Z,37.38
2023-05-15T13:12:48.140Z,37.45
2023-05-15T13:17:56.451Z,37.78
2023-05-15T13:22:59.407Z,37.42
2023-05-15T13:28:05.149Z,37.35
2023-05-15T13:33:08.473Z,37.67
2023-05-15T13:38:12.684Z,38.75
2023-05-15T13:43:16.886Z,37.80
2023-05-15T13:48:19.739Z,37.55
2023-05-15T13:53:22.730Z,39.58
2023-05-15T13:58:26.994Z,37.97
2023-05-15T14:03:30.974Z,38.65
2023-05-15T14:08:33.947Z,38.13
2023-05-15T14:13:38.116Z,38.10
2023-05-15T14:18:41.090Z,38.75
2023-05-15T14:23:44.225Z,37.80
2023-05-15T14:28:48.536Z,37.85
2023-05-15T14:33:52.517Z,37.60
2023-05-15T14:38:55.591Z,37.92
2023-05-15T14:43:59.821Z,37.70
2023-05-15T14:49:03.151Z,37.85
2023-05-15T14:54:07.761Z,37.88
2023-05-15T14:59:14.303Z,37.90
2023-05-15T15:04:17.806Z,37.97
2023-05-15T15:09:21.563Z,37.83
2023-05-15T15:14:26.117Z,38.03
2023-05-15T15:19:29.128Z,37.80
2023-05-15T15:24:32.022Z,37.85
2023-05-15T15:29:36.238Z,38.28
2023-05-15T15:34:39.084Z,37.70
2023-05-15T15:39:41.953Z,38.28
2023-05-15T15:44:52.171Z,38.47
2023-05-15T15:49:55.002Z,38.03
2023-05-15T15:54:57.959Z,38.75
2023-05-15T16:00:02.569Z,38.03
2023-05-15T16:05:11.109Z,38.75
2023-05-15T16:10:14.054Z,38.58
2023-05-15T16:15:22.383Z,38.67
2023-05-15T16:20:26.210Z,38.47
2023-05-15T16:25:29.391Z,38.35
2023-05-15T16:30:44.806Z,39.28
2023-05-15T16:35:51.514Z,38.25
2023-05-15T16:40:54.432Z,38.42
2023-05-15T16:45:58.912Z,38.95
2023-05-15T16:51:01.809Z,38.63
2023-05-15T16:56:04.924Z,38.67
2023-05-15T17:01:09.201Z,38.83
2023-05-15T17:06:12.076Z,39.38
2023-05-15T17:11:14.985Z,39.63
2023-05-15T17:16:21.454Z,38.97
2023-05-15T17:21:24.353Z,39.08
2023-05-15T17:26:28.527Z,39.15
2023-05-15T17:31:35.261Z,38.63
2023-05-15T17:36:38.133Z,38.38
2023-05-15T17:41:41.116Z,39.92
2023-05-15T17:46:45.416Z,39.05
2023-05-15T17:51:48.424Z,40.38
2023-05-15T17:56:51.312Z,39.67
2023-05-15T18:01:55.773Z,39.35
2023-05-15T18:06:58.733Z,38.72
2023-05-15T18:12:01.703Z,39.78
2023-05-15T18:17:06.425Z,39.85
2023-05-15T18:22:09.293Z,39.63
2023-05-15T18:27:12.207Z,38.75
2023-05-15T18:32:16.665Z,39.35
2023-05-15T18:37:19.541Z,39.25
2023-05-15T18:42:22.446Z,39.38
2023-05-15T18:47:26.962Z,40.40
2023-05-15T18:53:32.200Z,42.03
2023-05-15T18:59:07.133Z,40.15
2023-05-15T19:04:27.910Z,39.95
2023-05-15T19:09:59.624Z,40.17
2023-05-15T19:15:23.065Z,39.25
2023-05-15T19:20:27.711Z,39.28
2023-05-15T19:25:31.109Z,38.80
2023-05-15T19:30:34.140Z,38.75
2023-05-15T19:35:38.385Z,39.22
2023-05-15T19:40:50.199Z,39.10
2023-05-15T19:45:53.126Z,39.47
2023-05-15T19:50:57.359Z,42.60
2023-05-15T19:56:00.265Z,40.85
2023-05-15T20:01:03.566Z,41.00
2023-05-15T20:06:08.121Z,41.47
2023-05-15T20:11:11.144Z,40.67
2023-05-15T20:16:16.495Z,41.53
2023-05-15T20:21:20.901Z,42.03
2023-05-15T20:26:23.826Z,42.03
2023-05-15T20:31:28.780Z,42.45
2023-05-15T20:36:33.433Z,41.78
2023-05-15T20:41:37.084Z,41.13
2023-05-15T20:46:40.674Z,41.30
2023-05-15T20:51:44.875Z,41.90
2023-05-15T20:56:47.763Z,40.58
2023-05-15T21:01:50.733Z,40.13
2023-05-15T21:06:55.611Z,39.70
2023-05-15T21:11:59.710Z,40.60
2023-05-15T21:17:02.581Z,39.15
2023-05-15T21:22:06.823Z,39.15
2023-05-15T21:27:09.677Z,39.17
2023-05-15T21:32:12.752Z,38.80
2023-05-15T21:37:16.996Z,38.78
2023-05-15T21:42:19.830Z,39.55
2023-05-15T21:47:22.911Z,39.45
2023-05-15T21:52:27.159Z,40.70
2023-05-15T21:57:30.069Z,39.33
2023-05-15T22:02:33.012Z,39.08
2023-05-15T22:07:37.256Z,40.00
2023-05-15T22:12:40.197Z,39.55
2023-05-15T22:17:43.388Z,39.42
2023-05-15T22:22:47.685Z,38.70
2023-05-15T22:27:50.648Z,40.35
2023-05-15T22:32:53.570Z,40.00
2023-05-15T22:37:58.022Z,39.88
2023-05-15T22:43:00.845Z,39.58
2023-05-15T22:48:03.797Z,40.50
2023-05-15T22:53:08.085Z,40.03
2023-05-15T22:58:10.996Z,39.53
2023-05-15T23:03:13.948Z,40.03
2023-05-15T23:08:18.221Z,40.40
2023-05-15T23:13:21.052Z,40.78
2023-05-15T23:18:24.013Z,41.42
2023-05-15T23:23:28.234Z,40.80
2023-05-15T23:28:31.131Z,41.25
2023-05-15T23:33:34.392Z,41.03
2023-05-15T23:38:38.566Z,40.53
2023-05-15T23:43:41.446Z,41.22
2023-05-15T23:48:44.299Z,40.63
2023-05-15T23:53:50.000Z,41.28
2023-05-15T23:58:52.854Z,41.35
